MiSS Monie — WCZ9166 — position and weather

sailwx.info

Track history (hours):
 
Tides and Currents Weather Stations Pressure Air Temp Water Temp Dewpoint Dewpoint Depression Visibility Wind Speed Wind Dir Waves Ship Positions

MiSS Monie

Owner: MISS MONIE TOWING LLC, HULL, TX. More information available from US FCC via Universal Licensing System and Coast Guard Vessel Documentation Center.

Last reported at 2017-Nov-16 19:53 UTC. Time now 2017-Nov-18 01:08 UTC.
Position N 29°44' W 095°03'.

Length 20 m.

Type: Ship. MMSI: 366962010.

Date/timePositionNaut miles runAvg speedWind from/ knotsBaromVisibWave heightAir tempDewpointWater temp
2017-Nov-16 19:53N 29°44' W 095°03'4 0.2
2017-Nov-16 01:39N 29°44' W 095°08'1 6.9
2017-Nov-16 01:30N 29°44' W 095°09'3 5.8
2017-Nov-16 00:54N 29°43' W 095°13'2 5.8
2017-Nov-16 00:29N 29°44' W 095°16'0 0.2
2017-Nov-15 21:55N 29°44' W 095°16'9 0.5
2017-Nov-15 02:08N 29°45' W 095°06'1 5.1
2017-Nov-15 02:00N 29°45' W 095°06'2 4.8
2017-Nov-15 01:30N 29°44' W 095°09'2 4.7
2017-Nov-15 01:00N 29°45' W 095°11'2 0.6
2017-Nov-14 21:12N 29°44' W 095°14'3 1.3
2017-Nov-14 18:32N 29°45' W 095°10'6 0.9
2017-Nov-14 12:15N 29°44' W 095°04'2 5.5
2017-Nov-14 11:48N 29°43' W 095°01'1 3.3
2017-Nov-14 11:30N 29°42' W 095°02'1 0.1
2017-Nov-13 23:31N 29°43' W 095°03'0 1.0
2017-Nov-13 23:30N 29°43' W 095°03'2 2.5
2017-Nov-13 22:50N 29°44' W 095°02'4 0.2
2017-Nov-13 01:45N 29°46' W 095°05'2 6.4
2017-Nov-13 01:27N 29°44' W 095°07'3 6.1
2017-Nov-13 00:59N 29°45' W 095°10'3 6.1
2017-Nov-13 00:30N 29°43' W 095°13'1 1.2
2017-Nov-13 00:00N 29°44' W 095°14'1 1.9
2017-Nov-12 23:28N 29°44' W 095°13'3 4.3
2017-Nov-12 22:46N 29°44' W 095°09'3 0.4
2017-Nov-12 13:53N 29°46' W 095°06'0 0.0
2017-Nov-12 12:43N 29°46' W 095°06'0 0.0
2017-Nov-12 11:45N 29°46' W 095°06'0 0.0
2017-Nov-12 11:25N 29°46' W 095°06'0 0.0
2017-Nov-12 05:49N 29°46' W 095°06'0 0.0
2017-Nov-12 05:23N 29°46' W 095°06'0 0.0
2017-Nov-12 05:00N 29°46' W 095°06'1 2.0
2017-Nov-12 04:29N 29°46' W 095°05'4 4.7
2017-Nov-12 03:38N 29°43' W 095°01'1 4.9
2017-Nov-12 03:29N 29°42' W 095°01'2 3.8
2017-Nov-12 03:00N 29°43' W 095°03'2 0.1
2017-Nov-11 13:54N 29°44' W 095°02'0 0.1
2017-Nov-11 10:26N 29°44' W 095°01'0 0.4
2017-Nov-11 09:46N 29°44' W 095°02'3 5.5
2017-Nov-11 09:18N 29°45' W 095°04'3 5.2
2017-Nov-11 08:47N 29°44' W 095°07'2 6.1
2017-Nov-11 08:30N 29°44' W 095°09'0 0.4
2017-Nov-11 07:41N 29°44' W 095°09'4 1.3
2017-Nov-11 04:50N 29°46' W 095°05'1 1.6
2017-Nov-11 04:30N 29°45' W 095°06'1 2.0
2017-Nov-11 03:55N 29°44' W 095°06'3 6.1
2017-Nov-11 03:30N 29°44' W 095°09'3 5.4
2017-Nov-11 02:56N 29°44' W 095°13'1 2.0
2017-Nov-11 02:30N 29°44' W 095°14'2 4.2
2017-Nov-11 02:00N 29°45' W 095°12'2 4.7
2017-Nov-11 01:30N 29°43' W 095°14'5 1.2
2017-Nov-10 21:17N 29°44' W 095°08'2 0.2
2017-Nov-10 10:07N 29°45' W 095°10'0 0.0
2017-Nov-10 09:56N 29°45' W 095°10'0 0.0
2017-Nov-10 05:20N 29°45' W 095°10'4 0.2
2017-Nov-09 12:06N 29°45' W 095°06'0 4.7
2017-Nov-09 12:00N 29°46' W 095°06'4 0.1
2017-Nov-07 16:07N 29°44' W 095°02'1 4.8
2017-Nov-07 15:55N 29°43' W 095°01'2 4.7
2017-Nov-07 15:27N 29°42' W 094°59'3 5.6
2017-Nov-07 14:56N 29°39' W 094°58'2 4.9
2017-Nov-07 14:30N 29°37' W 094°58'3 5.7
2017-Nov-07 14:00N 29°37' W 095°01'0 0.5
2017-Nov-07 13:20N 29°36' W 095°01'0 0.0
2017-Nov-07 12:59N 29°36' W 095°01'0 0.0
2017-Nov-07 12:28N 29°36' W 095°01'0 0.0
2017-Nov-07 11:59N 29°36' W 095°01'0 0.0
2017-Nov-07 11:29N 29°36' W 095°01'0 0.0
2017-Nov-07 11:00N 29°36' W 095°01'0 0.0
2017-Nov-07 10:26N 29°36' W 095°01'0 0.0
2017-Nov-07 10:00N 29°36' W 095°01'0 0.0
2017-Nov-07 09:29N 29°36' W 095°01'0 0.0
2017-Nov-07 09:00N 29°36' W 095°01'0 0.0
2017-Nov-07 08:29N 29°36' W 095°01'0 0.0
2017-Nov-07 07:58N 29°36' W 095°01'0 0.0
2017-Nov-07 07:30N 29°36' W 095°01'0 0.0
2017-Nov-07 07:00N 29°36' W 095°01'0 0.0
2017-Nov-07 06:27N 29°36' W 095°01'0 0.0
2017-Nov-07 05:58N 29°36' W 095°01'0 0.0
2017-Nov-07 05:30N 29°36' W 095°01'0 0.0
2017-Nov-07 05:00N 29°36' W 095°01'0 0.0
2017-Nov-07 04:30N 29°36' W 095°01'0 0.0
2017-Nov-07 04:00N 29°36' W 095°01'0 0.0
2017-Nov-07 03:30N 29°36' W 095°01'0 0.0
2017-Nov-07 03:00N 29°36' W 095°01'0 0.0
2017-Nov-07 02:30N 29°36' W 095°01'0 0.0
2017-Nov-07 02:00N 29°36' W 095°01'1 1.9
2017-Nov-07 01:30N 29°37' W 095°00'2 4.5
2017-Nov-07 01:00N 29°38' W 094°58'3 6.2
2017-Nov-07 00:30N 29°41' W 094°59'  
Track history (hours):
 
Tides and Currents Weather Stations Pressure Air Temp Water Temp Dewpoint Dewpoint Depression Visibility Wind Speed Wind Dir Waves Ship Positions

MiSS Monie

Owner: MISS MONIE TOWING LLC, HULL, TX. More information available from US FCC via Universal Licensing System and Coast Guard Vessel Documentation Center.

Last reported at 2017-Nov-16 19:53 UTC. Time now 2017-Nov-18 01:08 UTC.
Position N 29°44' W 095°03'.

Length 20 m.

Type: Ship. MMSI: 366962010.

Date/timePositionNaut miles runAvg speedWind from/ knotsBaromVisibWave heightAir tempDewpointWater temp
2017-Nov-16 19:53N 29°44' W 095°03'4 0.2
2017-Nov-16 01:39N 29°44' W 095°08'1 6.9
2017-Nov-16 01:30N 29°44' W 095°09'3 5.8
2017-Nov-16 00:54N 29°43' W 095°13'2 5.8
2017-Nov-16 00:29N 29°44' W 095°16'0 0.2
2017-Nov-15 21:55N 29°44' W 095°16'9 0.5
2017-Nov-15 02:08N 29°45' W 095°06'1 5.1
2017-Nov-15 02:00N 29°45' W 095°06'2 4.8
2017-Nov-15 01:30N 29°44' W 095°09'2 4.7
2017-Nov-15 01:00N 29°45' W 095°11'2 0.6
2017-Nov-14 21:12N 29°44' W 095°14'3 1.3
2017-Nov-14 18:32N 29°45' W 095°10'6 0.9
2017-Nov-14 12:15N 29°44' W 095°04'2 5.5
2017-Nov-14 11:48N 29°43' W 095°01'1 3.3
2017-Nov-14 11:30N 29°42' W 095°02'1 0.1
2017-Nov-13 23:31N 29°43' W 095°03'0 1.0
2017-Nov-13 23:30N 29°43' W 095°03'2 2.5
2017-Nov-13 22:50N 29°44' W 095°02'4 0.2
2017-Nov-13 01:45N 29°46' W 095°05'2 6.4
2017-Nov-13 01:27N 29°44' W 095°07'3 6.1
2017-Nov-13 00:59N 29°45' W 095°10'3 6.1
2017-Nov-13 00:30N 29°43' W 095°13'1 1.2
2017-Nov-13 00:00N 29°44' W 095°14'1 1.9
2017-Nov-12 23:28N 29°44' W 095°13'3 4.3
2017-Nov-12 22:46N 29°44' W 095°09'3 0.4
2017-Nov-12 13:53N 29°46' W 095°06'0 0.0
2017-Nov-12 12:43N 29°46' W 095°06'0 0.0
2017-Nov-12 11:45N 29°46' W 095°06'0 0.0
2017-Nov-12 11:25N 29°46' W 095°06'0 0.0
2017-Nov-12 05:49N 29°46' W 095°06'0 0.0
2017-Nov-12 05:23N 29°46' W 095°06'0 0.0
2017-Nov-12 05:00N 29°46' W 095°06'1 2.0
2017-Nov-12 04:29N 29°46' W 095°05'4 4.7
2017-Nov-12 03:38N 29°43' W 095°01'1 4.9
2017-Nov-12 03:29N 29°42' W 095°01'2 3.8
2017-Nov-12 03:00N 29°43' W 095°03'2 0.1
2017-Nov-11 13:54N 29°44' W 095°02'0 0.1
2017-Nov-11 10:26N 29°44' W 095°01'0 0.4
2017-Nov-11 09:46N 29°44' W 095°02'3 5.5
2017-Nov-11 09:18N 29°45' W 095°04'3 5.2
2017-Nov-11 08:47N 29°44' W 095°07'2 6.1
2017-Nov-11 08:30N 29°44' W 095°09'0 0.4
2017-Nov-11 07:41N 29°44' W 095°09'4 1.3
2017-Nov-11 04:50N 29°46' W 095°05'1 1.6
2017-Nov-11 04:30N 29°45' W 095°06'1 2.0
2017-Nov-11 03:55N 29°44' W 095°06'3 6.1
2017-Nov-11 03:30N 29°44' W 095°09'3 5.4
2017-Nov-11 02:56N 29°44' W 095°13'1 2.0
2017-Nov-11 02:30N 29°44' W 095°14'2 4.2
2017-Nov-11 02:00N 29°45' W 095°12'2 4.7
2017-Nov-11 01:30N 29°43' W 095°14'5 1.2
2017-Nov-10 21:17N 29°44' W 095°08'2 0.2
2017-Nov-10 10:07N 29°45' W 095°10'0 0.0
2017-Nov-10 09:56N 29°45' W 095°10'0 0.0
2017-Nov-10 05:20N 29°45' W 095°10'4 0.2
2017-Nov-09 12:06N 29°45' W 095°06'0 4.7
2017-Nov-09 12:00N 29°46' W 095°06'4 0.1
2017-Nov-07 16:07N 29°44' W 095°02'1 4.8
2017-Nov-07 15:55N 29°43' W 095°01'2 4.7
2017-Nov-07 15:27N 29°42' W 094°59'3 5.6
2017-Nov-07 14:56N 29°39' W 094°58'2 4.9
2017-Nov-07 14:30N 29°37' W 094°58'3 5.7
2017-Nov-07 14:00N 29°37' W 095°01'0 0.5
2017-Nov-07 13:20N 29°36' W 095°01'0 0.0
2017-Nov-07 12:59N 29°36' W 095°01'0 0.0
2017-Nov-07 12:28N 29°36' W 095°01'0 0.0
2017-Nov-07 11:59N 29°36' W 095°01'0 0.0
2017-Nov-07 11:29N 29°36' W 095°01'0 0.0
2017-Nov-07 11:00N 29°36' W 095°01'0 0.0
2017-Nov-07 10:26N 29°36' W 095°01'0 0.0
2017-Nov-07 10:00N 29°36' W 095°01'0 0.0
2017-Nov-07 09:29N 29°36' W 095°01'0 0.0
2017-Nov-07 09:00N 29°36' W 095°01'0 0.0
2017-Nov-07 08:29N 29°36' W 095°01'0 0.0
2017-Nov-07 07:58N 29°36' W 095°01'0 0.0
2017-Nov-07 07:30N 29°36' W 095°01'0 0.0
2017-Nov-07 07:00N 29°36' W 095°01'0 0.0
2017-Nov-07 06:27N 29°36' W 095°01'0 0.0
2017-Nov-07 05:58N 29°36' W 095°01'0 0.0
2017-Nov-07 05:30N 29°36' W 095°01'0 0.0
2017-Nov-07 05:00N 29°36' W 095°01'0 0.0
2017-Nov-07 04:30N 29°36' W 095°01'0 0.0
2017-Nov-07 04:00N 29°36' W 095°01'0 0.0
2017-Nov-07 03:30N 29°36' W 095°01'0 0.0
2017-Nov-07 03:00N 29°36' W 095°01'0 0.0
2017-Nov-07 02:30N 29°36' W 095°01'0 0.0
2017-Nov-07 02:00N 29°36' W 095°01'1 1.9
2017-Nov-07 01:30N 29°37' W 095°00'2 4.5
2017-Nov-07 01:00N 29°38' W 094°58'3 6.2
2017-Nov-07 00:30N 29°41' W 094°59'  

Dump ship's entire track history